Time;durP1;ratioP1;P1;durP2;ratioP2;P2;SDS_P1;SDS_P2;PMS_P1;PMS_P2;Temp;Humidity;BMP_temperature;BMP_pressure;BME280_temperature;BME280_humidity;BME280_pressure;Samples;Min_cycle;Max_cycle;Signal;HPM_P1;HPM_P2
2023/03/09 00:00:54;;;;;;;5.43;1.60;;;;;;;;;;5074998;28;20095;-77
2023/03/09 00:03:20;;;;;;;2.55;1.45;;;;;;;;;;5073972;28;20081;-76
2023/03/09 00:05:57;;;;;;;6.25;1.83;;;;;;;;;;5073921;28;20056;-73
2023/03/09 00:08:23;;;;;;;5.05;1.73;;;;;;;;;;5080052;28;20028;-76
2023/03/09 00:10:52;;;;;;;4.80;2.05;;;;;;;;;;5079773;28;20040;-74
2023/03/09 00:13:22;;;;;;;4.75;1.70;;;;;;;;;;5073636;28;20111;-74
2023/03/09 00:15:51;;;;;;;4.15;1.98;;;;;;;;;;5082102;28;20198;-74
2023/03/09 00:18:21;;;;;;;4.35;1.60;;;;;;;;;;5071875;28;20032;-75
2023/03/09 00:20:47;;;;;;;5.40;2.78;;;;;;;;;;5074389;28;20052;-77
2023/03/09 00:23:17;;;;;;;2.33;1.50;;;;;;;;;;5076387;28;20130;-75
2023/03/09 00:25:44;;;;;;;5.38;1.60;;;;;;;;;;5073205;28;20033;-76
2023/03/09 00:28:10;;;;;;;4.63;1.73;;;;;;;;;;5076936;28;20196;-74
2023/03/09 00:30:36;;;;;;;3.22;1.70;;;;;;;;;;5078529;28;20373;-75
2023/03/09 00:33:03;;;;;;;6.50;2.00;;;;;;;;;;5077877;28;20115;-74
2023/03/09 00:35:29;;;;;;;3.85;1.60;;;;;;;;;;5078038;28;20021;-73
2023/03/09 00:37:55;;;;;;;4.55;1.60;;;;;;;;;;5073474;28;20202;-75
2023/03/09 00:40:21;;;;;;;2.65;1.38;;;;;;;;;;5075059;28;20016;-74
2023/03/09 00:42:47;;;;;;;4.72;1.58;;;;;;;;;;5075461;28;20114;-74
2023/03/09 00:45:15;;;;;;;3.05;1.70;;;;;;;;;;5079658;28;20020;-75
2023/03/09 00:47:41;;;;;;;4.22;1.42;;;;;;;;;;5071655;28;20430;-76
2023/03/09 00:50:08;;;;;;;4.35;1.55;;;;;;;;;;5074294;28;20954;-77
2023/03/09 00:52:34;;;;;;;3.38;1.63;;;;;;;;;;5073642;28;20047;-76
2023/03/09 00:55:01;;;;;;;2.63;1.27;;;;;;;;;;5071358;28;20121;-75
2023/03/09 00:57:27;;;;;;;4.28;2.25;;;;;;;;;;5073178;28;20361;-76
2023/03/09 00:59:55;;;;;;;2.42;1.30;;;;;;;;;;5068888;28;20107;-75
2023/03/09 01:02:22;;;;;;;2.28;1.20;;;;;;;;;;5073603;28;20114;-76
2023/03/09 01:04:49;;;;;;;2.30;1.23;;;;;;;;;;5076084;28;20514;-77
2023/03/09 01:07:15;;;;;;;3.00;1.23;;;;;;;;;;5073276;28;20020;-77
2023/03/09 01:09:42;;;;;;;3.60;1.48;;;;;;;;;;5076731;28;20103;-73
2023/03/09 01:12:08;;;;;;;3.72;1.38;;;;;;;;;;5074864;28;20031;-74
2023/03/09 01:14:34;;;;;;;3.47;1.38;;;;;;;;;;5077157;28;20024;-74
2023/03/09 01:17:01;;;;;;;4.30;1.50;;;;;;;;;;5077114;28;20028;-75
2023/03/09 01:19:27;;;;;;;4.35;1.30;;;;;;;;;;5073973;28;20036;-75
2023/03/09 01:21:54;;;;;;;7.75;1.77;;;;;;;;;;5075013;28;20089;-74
2023/03/09 01:24:20;;;;;;;5.43;1.63;;;;;;;;;;5072118;28;20103;-73
2023/03/09 01:26:46;;;;;;;2.22;1.10;;;;;;;;;;5076339;28;20536;-75
2023/03/09 01:29:12;;;;;;;6.10;1.40;;;;;;;;;;5070412;28;20126;-76
2023/03/09 01:31:39;;;;;;;5.03;1.60;;;;;;;;;;5075015;28;20539;-77
2023/03/09 01:34:05;;;;;;;3.33;1.30;;;;;;;;;;5075061;28;20423;-74
2023/03/09 01:36:31;;;;;;;6.13;1.80;;;;;;;;;;5069074;28;20040;-74
2023/03/09 01:38:57;;;;;;;5.43;1.35;;;;;;;;;;5074217;28;20795;-77
2023/03/09 01:41:24;;;;;;;6.50;2.25;;;;;;;;;;5072813;28;20020;-74
2023/03/09 01:43:53;;;;;;;5.70;1.70;;;;;;;;;;5075235;28;20107;-74
2023/03/09 01:46:25;;;;;;;5.38;1.35;;;;;;;;;;5076118;28;20028;-74
2023/03/09 01:48:51;;;;;;;;;;;;;;;;;;5074319;28;20031;-75
2023/03/09 01:51:19;;;;;;;2.05;1.02;;;;;;;;;;5080773;28;20363;-77
2023/03/09 01:53:46;;;;;;;4.03;1.08;;;;;;;;;;5072882;28;20031;-78
2023/03/09 01:56:13;;;;;;;4.95;1.15;;;;;;;;;;5077337;28;20175;-76
2023/03/09 01:58:39;;;;;;;2.75;1.00;;;;;;;;;;5065551;28;20095;-74
2023/03/09 02:01:06;;;;;;;3.85;1.13;;;;;;;;;;5076799;28;20767;-73
2023/03/09 02:03:36;;;;;;;3.85;1.20;;;;;;;;;;5078533;28;20027;-74
2023/03/09 02:06:05;;;;;;;2.38;0.93;;;;;;;;;;5083612;28;20125;-75
2023/03/09 02:08:32;;;;;;;4.25;1.17;;;;;;;;;;5077326;28;20099;-75
2023/03/09 02:11:00;;;;;;;5.68;1.88;;;;;;;;;;5082275;28;20140;-77
2023/03/09 02:13:31;;;;;;;2.58;1.20;;;;;;;;;;5083487;28;20099;-78
2023/03/09 02:15:57;;;;;;;2.72;1.10;;;;;;;;;;5082340;28;20560;-75
2023/03/09 02:18:24;;;;;;;5.25;1.33;;;;;;;;;;5071563;28;20517;-74
2023/03/09 02:20:59;;;;;;;3.95;1.42;;;;;;;;;;5083176;28;20044;-75
2023/03/09 02:23:28;;;;;;;5.03;1.42;;;;;;;;;;5078081;28;20497;-74
2023/03/09 02:26:18;;;;;;;5.35;1.27;;;;;;;;;;5081938;28;20103;-75
2023/03/09 02:28:44;;;;;;;4.43;1.20;;;;;;;;;;5045000;28;20127;-77
2023/03/09 02:31:11;;;;;;;3.13;1.15;;;;;;;;;;5076164;28;21105;-74
2023/03/09 02:33:38;;;;;;;2.58;1.10;;;;;;;;;;5072250;28;20021;-77
2023/03/09 02:36:04;;;;;;;4.80;1.52;;;;;;;;;;5067008;28;20773;-79
2023/03/09 02:38:31;;;;;;;5.22;1.67;;;;;;;;;;5067166;28;20031;-77
2023/03/09 02:41:00;;;;;;;2.88;1.40;;;;;;;;;;5075403;28;20028;-79
2023/03/09 02:43:33;;;;;;;6.40;1.52;;;;;;;;;;5075796;28;20039;-75
2023/03/09 02:45:59;;;;;;;3.63;1.35;;;;;;;;;;5070897;28;20139;-78
2023/03/09 02:48:25;;;;;;;4.07;1.45;;;;;;;;;;5070172;28;20032;-74
2023/03/09 02:50:51;;;;;;;4.65;1.38;;;;;;;;;;5080272;28;20062;-78
2023/03/09 02:53:18;;;;;;;5.68;1.55;;;;;;;;;;5078780;28;20024;-77
2023/03/09 02:55:44;;;;;;;3.58;1.20;;;;;;;;;;5070874;28;20060;-76
2023/03/09 02:58:10;;;;;;;4.47;1.42;;;;;;;;;;5077572;28;20020;-74
2023/03/09 03:00:37;;;;;;;4.60;1.40;;;;;;;;;;5076723;28;20371;-75
2023/03/09 03:03:03;;;;;;;3.35;1.50;;;;;;;;;;5080289;28;20012;-76
2023/03/09 03:05:30;;;;;;;3.65;1.70;;;;;;;;;;5080915;28;20027;-76
2023/03/09 03:07:58;;;;;;;5.50;1.58;;;;;;;;;;5076089;28;20048;-76
2023/03/09 03:10:24;;;;;;;3.53;1.20;;;;;;;;;;5083391;28;20043;-75
2023/03/09 03:12:50;;;;;;;3.97;1.30;;;;;;;;;;5074862;28;20074;-77
2023/03/09 03:15:17;;;;;;;4.13;1.23;;;;;;;;;;5080673;28;20032;-77
2023/03/09 03:17:43;;;;;;;3.58;1.13;;;;;;;;;;5069914;28;20099;-79
2023/03/09 03:20:14;;;;;;;4.28;1.50;;;;;;;;;;5081325;28;20076;-78
2023/03/09 03:22:42;;;;;;;4.05;1.30;;;;;;;;;;5079047;28;20016;-77
2023/03/09 03:25:11;;;;;;;5.45;1.50;;;;;;;;;;5076309;27;20349;-78
2023/03/09 03:27:38;;;;;;;4.70;1.55;;;;;;;;;;5069015;28;20107;-74
2023/03/09 03:30:04;;;;;;;4.70;1.58;;;;;;;;;;5077103;28;20028;-74
2023/03/09 03:32:30;;;;;;;2.85;1.50;;;;;;;;;;5082063;28;20028;-74
2023/03/09 03:34:57;;;;;;;6.35;1.88;;;;;;;;;;5073537;28;20060;-77
2023/03/09 03:37:23;;;;;;;2.55;1.00;;;;;;;;;;5075883;28;20043;-76
2023/03/09 03:39:49;;;;;;;5.18;1.58;;;;;;;;;;5077004;28;20035;-74
2023/03/09 03:42:19;;;;;;;5.60;2.08;;;;;;;;;;5079403;28;20073;-77
2023/03/09 03:44:45;;;;;;;8.52;1.58;;;;;;;;;;5074320;28;20575;-75
2023/03/09 03:47:11;;;;;;;6.50;1.60;;;;;;;;;;5075664;28;20237;-79
2023/03/09 03:49:37;;;;;;;4.18;1.40;;;;;;;;;;5083773;28;20024;-77
2023/03/09 03:52:03;;;;;;;3.03;0.90;;;;;;;;;;5076269;28;20597;-76
2023/03/09 03:54:30;;;;;;;6.10;1.38;;;;;;;;;;5079492;28;20043;-78
2023/03/09 03:56:56;;;;;;;3.08;1.33;;;;;;;;;;5075676;28;20102;-75
2023/03/09 03:59:22;;;;;;;3.88;1.20;;;;;;;;;;5077393;28;20410;-78
2023/03/09 04:01:48;;;;;;;4.85;1.80;;;;;;;;;;5074564;28;20112;-76
2023/03/09 04:04:15;;;;;;;7.72;1.50;;;;;;;;;;5076620;28;20468;-74
2023/03/09 04:06:41;;;;;;;8.30;2.15;;;;;;;;;;5078534;28;20111;-77
2023/03/09 04:09:07;;;;;;;6.50;1.48;;;;;;;;;;5076570;28;20499;-75
2023/03/09 04:11:33;;;;;;;6.22;1.70;;;;;;;;;;5073998;28;20108;-75
2023/03/09 04:14:01;;;;;;;4.15;1.40;;;;;;;;;;5075683;28;20016;-75
2023/03/09 04:16:27;;;;;;;4.10;1.45;;;;;;;;;;5077636;28;20085;-74
2023/03/09 04:18:53;;;;;;;3.97;1.35;;;;;;;;;;5081260;28;20028;-75
2023/03/09 04:21:19;;;;;;;3.90;1.23;;;;;;;;;;5075979;28;20560;-74
2023/03/09 04:23:48;;;;;;;4.80;1.40;;;;;;;;;;5073517;28;20044;-75
2023/03/09 04:26:15;;;;;;;2.60;1.00;;;;;;;;;;5075700;28;20021;-76
2023/03/09 04:28:41;;;;;;;5.05;1.60;;;;;;;;;;5084688;28;20952;-74
2023/03/09 04:31:07;;;;;;;5.97;1.58;;;;;;;;;;5077470;28;20040;-74
2023/03/09 04:33:33;;;;;;;4.47;1.20;;;;;;;;;;5075605;28;20143;-75
2023/03/09 04:36:00;;;;;;;4.88;1.63;;;;;;;;;;5077877;28;20020;-73
2023/03/09 04:38:26;;;;;;;3.65;1.40;;;;;;;;;;5076267;28;20621;-78
2023/03/09 04:40:52;;;;;;;7.60;1.70;;;;;;;;;;5076490;28;20055;-74
2023/03/09 04:43:18;;;;;;;6.78;1.63;;;;;;;;;;5077641;28;20859;-75
2023/03/09 04:45:44;;;;;;;3.50;1.35;;;;;;;;;;5078392;28;20525;-76
2023/03/09 04:48:11;;;;;;;3.63;1.10;;;;;;;;;;5075254;28;20016;-78
2023/03/09 04:50:37;;;;;;;2.80;1.20;;;;;;;;;;5073361;28;20036;-77
2023/03/09 04:53:03;;;;;;;8.10;1.58;;;;;;;;;;5075705;28;20472;-76
2023/03/09 04:55:30;;;;;;;2.95;1.00;;;;;;;;;;5069512;28;20143;-73
2023/03/09 04:57:56;;;;;;;4.13;1.50;;;;;;;;;;5079322;28;20043;-78
2023/03/09 05:00:23;;;;;;;4.15;1.27;;;;;;;;;;5071803;28;20027;-75
2023/03/09 05:02:49;;;;;;;2.65;1.02;;;;;;;;;;5079800;28;20055;-74
2023/03/09 05:05:16;;;;;;;2.10;1.00;;;;;;;;;;5074047;28;20631;-75
2023/03/09 05:07:42;;;;;;;2.08;0.82;;;;;;;;;;5075665;28;20108;-77
2023/03/09 05:10:09;;;;;;;2.30;1.00;;;;;;;;;;5073805;28;20036;-74
2023/03/09 05:12:35;;;;;;;3.42;0.90;;;;;;;;;;5068869;28;20489;-77
2023/03/09 05:15:03;;;;;;;2.95;1.40;;;;;;;;;;5075953;28;20110;-75
2023/03/09 05:17:30;;;;;;;2.60;1.10;;;;;;;;;;5073008;28;20024;-74
2023/03/09 05:19:56;;;;;;;2.45;1.13;;;;;;;;;;5076326;28;20182;-78
2023/03/09 05:22:22;;;;;;;3.22;0.80;;;;;;;;;;5074349;28;20027;-76
2023/03/09 05:24:48;;;;;;;3.35;1.00;;;;;;;;;;5074929;28;20430;-77
2023/03/09 05:27:15;;;;;;;1.90;1.50;;;;;;;;;;5075012;28;20020;-74
2023/03/09 05:29:41;;;;;;;4.78;0.93;;;;;;;;;;5073999;28;20035;-74
2023/03/09 05:32:08;;;;;;;3.13;0.80;;;;;;;;;;5073957;28;20036;-75
2023/03/09 05:34:34;;;;;;;3.00;1.00;;;;;;;;;;5073678;28;20738;-74
2023/03/09 05:37:01;;;;;;;4.78;1.10;;;;;;;;;;5071722;28;20104;-75
2023/03/09 05:39:27;;;;;;;3.47;0.90;;;;;;;;;;5074165;28;20454;-74
2023/03/09 05:41:54;;;;;;;2.85;1.13;;;;;;;;;;5071860;28;20027;-74
2023/03/09 05:44:20;;;;;;;2.30;0.93;;;;;;;;;;5076704;28;20107;-76
2023/03/09 05:46:46;;;;;;;2.30;1.23;;;;;;;;;;5072895;28;20114;-76
2023/03/09 05:49:12;;;;;;;3.58;0.95;;;;;;;;;;5073059;28;20035;-74
2023/03/09 05:51:39;;;;;;;3.55;1.35;;;;;;;;;;5072579;28;20210;-79
2023/03/09 05:54:05;;;;;;;2.53;1.05;;;;;;;;;;5081001;28;20023;-76
2023/03/09 05:56:31;;;;;;;4.28;1.00;;;;;;;;;;5078637;28;20681;-76
2023/03/09 05:58:57;;;;;;;3.15;1.00;;;;;;;;;;5075871;28;20503;-74
2023/03/09 06:01:25;;;;;;;4.22;0.90;;;;;;;;;;5072134;28;20020;-79
2023/03/09 06:03:51;;;;;;;2.22;1.00;;;;;;;;;;5075896;28;20595;-75
2023/03/09 06:06:17;;;;;;;2.72;0.90;;;;;;;;;;5076187;28;20020;-74
2023/03/09 06:08:44;;;;;;;3.78;0.90;;;;;;;;;;5073689;28;20035;-76
2023/03/09 06:11:10;;;;;;;1.65;0.80;;;;;;;;;;5071113;28;20162;-75
2023/03/09 06:13:37;;;;;;;2.00;0.63;;;;;;;;;;5074073;28;20126;-75
2023/03/09 06:16:04;;;;;;;2.95;0.90;;;;;;;;;;5072843;28;20619;-78
2023/03/09 06:18:31;;;;;;;2.28;0.70;;;;;;;;;;5077771;28;20763;-75
2023/03/09 06:21:00;;;;;;;1.50;0.80;;;;;;;;;;5071560;28;20577;-74
2023/03/09 06:23:26;;;;;;;1.65;0.80;;;;;;;;;;5075074;28;20020;-78
2023/03/09 06:25:52;;;;;;;3.42;1.05;;;;;;;;;;5073923;28;20388;-74
2023/03/09 06:28:19;;;;;;;2.13;0.80;;;;;;;;;;5072456;28;20640;-76
2023/03/09 06:30:45;;;;;;;1.45;0.95;;;;;;;;;;5082323;28;20040;-73
2023/03/09 06:33:11;;;;;;;1.95;0.82;;;;;;;;;;5079576;28;20123;-74
2023/03/09 06:35:37;;;;;;;3.85;1.02;;;;;;;;;;5082195;28;20099;-74
2023/03/09 06:38:03;;;;;;;2.38;0.80;;;;;;;;;;5072953;28;20024;-77
2023/03/09 06:40:30;;;;;;;2.03;0.82;;;;;;;;;;5077214;28;20088;-77
2023/03/09 06:42:56;;;;;;;3.55;1.05;;;;;;;;;;5081875;28;20142;-75
2023/03/09 06:45:22;;;;;;;1.35;0.80;;;;;;;;;;5075174;28;20031;-75
2023/03/09 06:47:49;;;;;;;1.95;0.80;;;;;;;;;;5073053;28;20111;-76
2023/03/09 06:50:15;;;;;;;1.80;0.70;;;;;;;;;;5072611;28;20616;-75
2023/03/09 06:52:41;;;;;;;1.92;0.70;;;;;;;;;;5071402;28;20028;-77
2023/03/09 06:55:08;;;;;;;2.53;1.05;;;;;;;;;;5077390;28;20024;-73
2023/03/09 06:57:34;;;;;;;2.17;0.63;;;;;;;;;;5075415;28;20050;-76
2023/03/09 07:00:00;;;;;;;1.40;0.70;;;;;;;;;;5076231;28;20054;-74
2023/03/09 07:02:26;;;;;;;1.27;0.60;;;;;;;;;;5077948;28;20147;-73
2023/03/09 07:04:52;;;;;;;1.25;0.65;;;;;;;;;;5081784;28;20023;-77
2023/03/09 07:07:19;;;;;;;1.50;0.60;;;;;;;;;;5077360;28;20610;-77
2023/03/09 07:09:45;;;;;;;2.33;0.60;;;;;;;;;;5075654;28;20032;-73
2023/03/09 07:12:11;;;;;;;2.53;0.82;;;;;;;;;;5074520;28;20177;-77
2023/03/09 07:14:37;;;;;;;1.90;0.80;;;;;;;;;;5072724;28;20024;-76
2023/03/09 07:17:04;;;;;;;2.08;0.80;;;;;;;;;;5075714;28;20469;-77
2023/03/09 07:19:30;;;;;;;1.90;0.80;;;;;;;;;;5075126;28;20036;-76
2023/03/09 07:21:56;;;;;;;5.10;0.88;;;;;;;;;;5074468;28;20059;-77
2023/03/09 07:24:23;;;;;;;2.22;0.80;;;;;;;;;;5076552;28;20028;-77
2023/03/09 07:26:49;;;;;;;1.55;0.80;;;;;;;;;;5072290;28;20136;-74
2023/03/09 07:29:16;;;;;;;1.98;0.88;;;;;;;;;;5075030;28;20020;-73
2023/03/09 07:31:42;;;;;;;1.50;0.80;;;;;;;;;;5077452;28;20114;-73
2023/03/09 07:34:08;;;;;;;2.17;0.80;;;;;;;;;;5079511;28;20019;-76
2023/03/09 07:36:34;;;;;;;1.85;0.75;;;;;;;;;;5080292;28;20024;-73
2023/03/09 07:39:01;;;;;;;1.67;0.80;;;;;;;;;;5076700;28;20022;-77
2023/03/09 07:41:27;;;;;;;2.78;1.10;;;;;;;;;;5075830;28;20136;-73
2023/03/09 07:43:53;;;;;;;1.92;0.90;;;;;;;;;;5078131;28;20122;-78
2023/03/09 07:46:19;;;;;;;1.90;0.63;;;;;;;;;;5073455;28;20104;-74
2023/03/09 07:48:46;;;;;;;2.85;0.90;;;;;;;;;;5075765;28;20465;-78
2023/03/09 07:51:12;;;;;;;2.17;0.90;;;;;;;;;;5075387;28;20032;-78
2023/03/09 07:53:40;;;;;;;2.88;1.10;;;;;;;;;;5071308;28;20090;-74
2023/03/09 07:56:07;;;;;;;1.83;0.90;;;;;;;;;;5081820;28;20035;-75
2023/03/09 07:58:35;;;;;;;5.13;1.45;;;;;;;;;;5073181;28;20097;-76
2023/03/09 08:01:01;;;;;;;2.15;0.70;;;;;;;;;;5081361;28;20032;-75
2023/03/09 08:03:28;;;;;;;2.40;0.90;;;;;;;;;;5078441;28;20045;-74
2023/03/09 08:05:55;;;;;;;3.55;0.90;;;;;;;;;;5072254;28;20025;-74
2023/03/09 08:08:26;;;;;;;1.67;0.77;;;;;;;;;;5076625;28;20024;-74
2023/03/09 08:10:52;;;;;;;1.80;0.80;;;;;;;;;;5070923;28;20032;-74
2023/03/09 08:13:20;;;;;;;1.33;0.70;;;;;;;;;;5079424;28;20452;-74
2023/03/09 08:15:47;;;;;;;1.40;0.75;;;;;;;;;;5074758;28;20028;-74
2023/03/09 08:18:13;;;;;;;5.45;1.00;;;;;;;;;;5067992;28;20009;-74
2023/03/09 08:20:39;;;;;;;2.78;0.93;;;;;;;;;;5074017;28;20060;-75
2023/03/09 08:23:06;;;;;;;1.40;0.93;;;;;;;;;;5081167;28;20028;-75
2023/03/09 08:25:33;;;;;;;4.30;1.00;;;;;;;;;;5077554;28;20028;-74
2023/03/09 08:28:00;;;;;;;2.13;0.90;;;;;;;;;;5071477;28;20031;-74
2023/03/09 08:30:26;;;;;;;2.92;1.30;;;;;;;;;;5079199;28;20495;-73
2023/03/09 08:32:53;;;;;;;2.42;1.10;;;;;;;;;;5077021;28;20530;-75
2023/03/09 08:35:21;;;;;;;4.18;1.48;;;;;;;;;;5075774;28;20033;-74
2023/03/09 08:37:48;;;;;;;3.38;1.25;;;;;;;;;;5069440;28;20773;-74
2023/03/09 08:40:14;;;;;;;1.08;0.90;;;;;;;;;;5069436;28;20032;-74
2023/03/09 08:42:41;;;;;;;3.00;1.30;;;;;;;;;;5075817;28;20103;-75
2023/03/09 08:45:07;;;;;;;3.80;1.40;;;;;;;;;;5073092;28;20024;-74
2023/03/09 08:47:34;;;;;;;3.80;1.40;;;;;;;;;;5071410;28;20095;-75
2023/03/09 08:50:00;;;;;;;3.53;1.83;;;;;;;;;;5073831;28;20166;-74
2023/03/09 08:52:26;;;;;;;6.82;2.53;;;;;;;;;;5075117;28;20048;-75
2023/03/09 08:54:52;;;;;;;4.68;1.98;;;;;;;;;;5078365;28;20024;-75
2023/03/09 08:57:19;;;;;;;5.32;1.35;;;;;;;;;;5070792;28;20040;-75
2023/03/09 08:59:47;;;;;;;4.18;1.58;;;;;;;;;;5080043;28;20055;-74
2023/03/09 09:02:14;;;;;;;2.97;1.42;;;;;;;;;;5072863;28;20028;-74
2023/03/09 09:04:46;;;;;;;2.25;1.30;;;;;;;;;;5076487;28;20036;-74
2023/03/09 09:07:12;;;;;;;3.35;1.40;;;;;;;;;;5071702;28;20059;-76
2023/03/09 09:09:39;;;;;;;6.72;1.67;;;;;;;;;;5075401;28;20097;-74
2023/03/09 09:12:05;;;;;;;4.15;1.50;;;;;;;;;;5073196;28;20504;-74
2023/03/09 09:14:32;;;;;;;4.40;1.40;;;;;;;;;;5067852;28;20060;-75
2023/03/09 09:16:59;;;;;;;7.43;2.00;;;;;;;;;;5072148;28;20074;-74
2023/03/09 09:19:26;;;;;;;3.55;1.40;;;;;;;;;;5070332;28;20051;-74
2023/03/09 09:21:52;;;;;;;2.75;1.40;;;;;;;;;;5076260;28;20475;-74
2023/03/09 09:24:19;;;;;;;3.03;1.75;;;;;;;;;;5076938;28;20908;-74
2023/03/09 09:26:45;;;;;;;4.07;1.60;;;;;;;;;;5071817;28;20032;-74
2023/03/09 09:29:12;;;;;;;4.35;1.60;;;;;;;;;;5077957;28;20536;-73
2023/03/09 09:31:38;;;;;;;4.50;1.85;;;;;;;;;;5074740;28;20155;-74
2023/03/09 09:34:05;;;;;;;4.10;1.70;;;;;;;;;;5076675;28;20020;-75
2023/03/09 09:36:33;;;;;;;2.97;1.50;;;;;;;;;;5071567;28;20024;-74
2023/03/09 09:39:00;;;;;;;4.95;1.60;;;;;;;;;;5075401;28;20063;-74
2023/03/09 09:41:40;;;;;;;3.40;1.60;;;;;;;;;;5076792;28;20093;-74
2023/03/09 09:44:10;;;;;;;3.38;1.48;;;;;;;;;;5070893;28;20165;-74
2023/03/09 09:46:39;;;;;;;5.00;1.80;;;;;;;;;;5069019;28;20033;-74
2023/03/09 09:49:06;;;;;;;4.22;1.63;;;;;;;;;;5077555;28;20028;-73
2023/03/09 09:51:33;;;;;;;4.70;1.48;;;;;;;;;;5073965;28;20040;-73
2023/03/09 09:54:04;;;;;;;3.45;1.50;;;;;;;;;;5074562;28;20104;-73
2023/03/09 09:56:47;;;;;;;3.55;1.77;;;;;;;;;;5075260;28;20114;-74
2023/03/09 09:59:20;;;;;;;3.90;1.60;;;;;;;;;;5076455;28;20085;-74
2023/03/09 10:01:50;;;;;;;3.65;1.60;;;;;;;;;;5071821;28;20016;-74
2023/03/09 10:04:23;;;;;;;2.90;1.40;;;;;;;;;;5072708;28;20024;-74
2023/03/09 10:06:49;;;;;;;1.85;1.42;;;;;;;;;;5070362;28;20111;-74
2023/03/09 10:09:23;;;;;;;1.73;1.30;;;;;;;;;;5074301;28;20039;-75
2023/03/09 10:11:54;;;;;;;2.92;1.60;;;;;;;;;;5068752;28;20044;-74
2023/03/09 10:14:39;;;;;;;3.15;1.73;;;;;;;;;;5069693;28;20062;-74
2023/03/09 10:17:17;;;;;;;4.20;1.60;;;;;;;;;;5066470;28;20039;-73
2023/03/09 10:19:43;;;;;;;2.90;1.42;;;;;;;;;;5070589;28;20147;-74
2023/03/09 10:22:16;;;;;;;5.30;1.35;;;;;;;;;;5076820;28;20472;-74
2023/03/09 10:24:47;;;;;;;5.63;1.50;;;;;;;;;;5072364;28;20032;-74
2023/03/09 10:27:13;;;;;;;3.08;1.40;;;;;;;;;;5081891;28;20091;-73
2023/03/09 10:30:12;;;;;;;2.65;1.30;;;;;;;;;;5074984;28;20514;-74
2023/03/09 10:32:42;;;;;;;4.93;1.58;;;;;;;;;;5031485;28;20119;-73
2023/03/09 10:35:27;;;;;;;7.70;2.10;;;;;;;;;;5073874;28;20024;-74
2023/03/09 10:37:53;;;;;;;4.38;1.75;;;;;;;;;;5080977;28;20084;-74
2023/03/09 10:40:24;;;;;;;3.83;1.50;;;;;;;;;;5074766;28;20404;-74
2023/03/09 10:42:51;;;;;;;4.67;1.60;;;;;;;;;;5071634;28;20020;-74
2023/03/09 10:45:21;;;;;;;2.33;1.33;;;;;;;;;;5074323;28;20260;-74
2023/03/09 10:47:52;;;;;;;2.97;1.50;;;;;;;;;;5073073;28;20966;-73
2023/03/09 10:50:21;;;;;;;4.05;1.52;;;;;;;;;;5075491;28;20047;-76
2023/03/09 10:52:47;;;;;;;5.18;2.13;;;;;;;;;;5078564;28;20032;-73
2023/03/09 10:55:23;;;;;;;3.53;1.60;;;;;;;;;;5078557;28;20359;-75
2023/03/09 10:57:56;;;;;;;4.38;1.63;;;;;;;;;;5087177;28;20760;-74
2023/03/09 11:00:23;;;;;;;2.78;1.70;;;;;;;;;;5071571;28;20024;-74
2023/03/09 11:02:54;;;;;;;3.60;1.63;;;;;;;;;;5080263;28;20600;-74
2023/03/09 11:05:24;;;;;;;1.60;1.08;;;;;;;;;;5081980;28;20434;-74
2023/03/09 11:07:57;;;;;;;2.95;1.13;;;;;;;;;;5084437;28;20452;-73
2023/03/09 11:10:24;;;;;;;2.03;1.17;;;;;;;;;;5078405;28;20148;-74
2023/03/09 11:12:50;;;;;;;2.83;1.13;;;;;;;;;;5073083;28;20035;-74
2023/03/09 11:15:16;;;;;;;3.38;1.38;;;;;;;;;;5081270;28;20043;-74
2023/03/09 11:17:43;;;;;;;4.22;1.30;;;;;;;;;;5080241;28;20055;-73
2023/03/09 11:20:12;;;;;;;2.30;1.20;;;;;;;;;;5082024;28;20609;-73
2023/03/09 11:22:45;;;;;;;3.10;1.38;;;;;;;;;;5075386;28;20039;-74
2023/03/09 11:25:17;;;;;;;1.95;1.02;;;;;;;;;;5082254;28;20038;-74
2023/03/09 11:27:43;;;;;;;;;;;;;;;;;;5081204;28;20024;-74
2023/03/09 11:30:09;;;;;;;1.98;1.13;;;;;;;;;;5081779;28;19915;-74
2023/03/09 11:32:35;;;;;;;7.20;1.25;;;;;;;;;;5082763;28;20031;-73
2023/03/09 11:35:02;;;;;;;3.15;1.13;;;;;;;;;;5087231;28;20467;-74
2023/03/09 11:37:28;;;;;;;2.00;1.10;;;;;;;;;;5085869;28;20364;-73
2023/03/09 11:39:56;;;;;;;3.35;1.20;;;;;;;;;;5079435;28;20103;-74
2023/03/09 11:42:55;;;;;;;3.08;1.30;;;;;;;;;;5079542;28;20016;-74
2023/03/09 11:45:23;;;;;;;2.13;1.20;;;;;;;;;;5041699;28;20048;-74
2023/03/09 11:48:03;;;;;;;2.90;1.42;;;;;;;;;;5081002;28;20028;-74
2023/03/09 11:50:41;;;;;;;3.05;2.20;;;;;;;;;;5078103;28;20694;-76
2023/03/09 11:53:10;;;;;;;3.15;1.92;;;;;;;;;;5080787;28;20117;-74
2023/03/09 11:55:39;;;;;;;5.22;1.30;;;;;;;;;;5078832;28;20047;-77
2023/03/09 11:58:09;;;;;;;2.45;1.40;;;;;;;;;;5083421;28;20051;-75
2023/03/09 12:00:37;;;;;;;1.67;0.95;;;;;;;;;;5076546;28;20027;-77
2023/03/09 12:03:22;;;;;;;2.78;1.30;;;;;;;;;;5082500;28;20069;-75
2023/03/09 12:05:55;;;;;;;2.22;1.40;;;;;;;;;;5079758;28;20633;-76
2023/03/09 12:08:27;;;;;;;2.67;1.50;;;;;;;;;;5081207;28;20103;-75
2023/03/09 12:11:05;;;;;;;3.88;1.73;;;;;;;;;;5076161;28;20032;-75
2023/03/09 12:13:36;;;;;;;3.65;1.40;;;;;;;;;;5082750;28;20050;-74
2023/03/09 12:16:08;;;;;;;3.72;1.30;;;;;;;;;;5075705;28;20050;-74
2023/03/09 12:18:45;;;;;;;6.88;1.50;;;;;;;;;;5078213;28;20024;-74
2023/03/09 12:21:11;;;;;;;3.67;1.73;;;;;;;;;;5077704;28;20068;-76
2023/03/09 12:23:40;;;;;;;2.40;1.40;;;;;;;;;;5077857;28;20028;-73
2023/03/09 12:26:12;;;;;;;3.53;1.10;;;;;;;;;;5082540;28;20022;-76
2023/03/09 12:28:39;;;;;;;2.53;1.27;;;;;;;;;;5079640;28;20016;-74
2023/03/09 12:31:05;;;;;;;4.43;1.50;;;;;;;;;;5082167;28;20728;-77
2023/03/09 12:33:46;;;;;;;2.15;1.30;;;;;;;;;;5080098;28;20379;-75
2023/03/09 12:36:21;;;;;;;3.45;1.15;;;;;;;;;;5077404;28;20047;-74
2023/03/09 12:39:07;;;;;;;6.57;1.83;;;;;;;;;;5080827;28;20026;-74
2023/03/09 12:41:53;;;;;;;5.47;1.88;;;;;;;;;;5076953;28;20045;-74
2023/03/09 12:44:38;;;;;;;3.42;1.58;;;;;;;;;;5081128;28;20056;-75
2023/03/09 12:47:05;;;;;;;4.07;1.58;;;;;;;;;;5078690;28;20107;-74
2023/03/09 12:49:33;;;;;;;6.00;1.70;;;;;;;;;;5079691;28;20425;-77
2023/03/09 12:52:04;;;;;;;4.97;1.40;;;;;;;;;;5077447;28;20032;-75
2023/03/09 12:54:30;;;;;;;1.83;1.15;;;;;;;;;;5080551;28;20055;-74
2023/03/09 12:56:57;;;;;;;4.72;1.50;;;;;;;;;;5080043;28;20495;-76
2023/03/09 12:59:27;;;;;;;2.85;1.52;;;;;;;;;;5076831;28;20035;-74
2023/03/09 13:01:54;;;;;;;2.45;1.30;;;;;;;;;;5082282;28;20544;-72
2023/03/09 13:04:25;;;;;;;1.55;1.33;;;;;;;;;;5076819;28;20103;-72
2023/03/09 13:06:52;;;;;;;2.42;1.02;;;;;;;;;;5081854;28;20016;-72
2023/03/09 13:09:18;;;;;;;1.30;1.05;;;;;;;;;;5078243;28;20103;-73
2023/03/09 13:11:57;;;;;;;1.35;0.90;;;;;;;;;;5082567;28;20032;-75
2023/03/09 13:14:26;;;;;;;6.07;1.00;;;;;;;;;;5075189;28;20044;-72
2023/03/09 13:16:52;;;;;;;2.63;1.40;;;;;;;;;;5084090;28;20055;-73
2023/03/09 13:19:18;;;;;;;1.63;1.17;;;;;;;;;;5076198;28;20016;-73
2023/03/09 13:21:50;;;;;;;2.83;1.25;;;;;;;;;;5082120;28;20586;-73
2023/03/09 13:24:19;;;;;;;1.52;1.00;;;;;;;;;;5079235;28;20051;-72
2023/03/09 13:26:46;;;;;;;3.58;1.27;;;;;;;;;;5083145;28;20088;-72
2023/03/09 13:29:23;;;;;;;1.77;0.98;;;;;;;;;;5075440;28;20040;-73
2023/03/09 13:31:50;;;;;;;1.80;1.08;;;;;;;;;;5079726;28;20024;-75
2023/03/09 13:34:22;;;;;;;4.05;1.20;;;;;;;;;;5078380;28;20048;-72
2023/03/09 13:36:52;;;;;;;3.60;1.30;;;;;;;;;;5076185;28;20136;-71
2023/03/09 13:39:19;;;;;;;4.43;1.20;;;;;;;;;;5080410;28;20076;-72
2023/03/09 13:41:46;;;;;;;2.88;1.13;;;;;;;;;;5085077;28;20024;-71
2023/03/09 13:44:16;;;;;;;4.25;0.98;;;;;;;;;;5076197;28;20027;-72
2023/03/09 13:46:46;;;;;;;1.63;1.10;;;;;;;;;;5073637;28;20840;-73
2023/03/09 13:49:21;;;;;;;3.17;1.50;;;;;;;;;;5082295;28;20365;-71
2023/03/09 13:51:50;;;;;;;4.13;1.30;;;;;;;;;;5077838;28;20032;-74
2023/03/09 13:54:22;;;;;;;4.53;1.40;;;;;;;;;;5080234;28;20020;-75
2023/03/09 13:57:18;;;;;;;2.10;1.10;;;;;;;;;;5081373;28;20020;-72
2023/03/09 13:59:44;;;;;;;2.55;1.20;;;;;;;;;;5072091;28;20118;-72
2023/03/09 14:02:11;;;;;;;2.00;1.10;;;;;;;;;;5083780;28;20032;-73
2023/03/09 14:04:56;;;;;;;3.22;1.58;;;;;;;;;;5082681;28;20044;-76
2023/03/09 14:07:24;;;;;;;3.22;1.27;;;;;;;;;;5077826;28;20017;-72
2023/03/09 14:09:52;;;;;;;2.95;1.20;;;;;;;;;;5077922;28;20151;-74
2023/03/09 14:12:23;;;;;;;3.38;1.50;;;;;;;;;;5076430;28;20075;-73
2023/03/09 14:14:49;;;;;;;7.28;1.30;;;;;;;;;;5080540;28;20051;-73
2023/03/09 14:17:18;;;;;;;3.03;1.38;;;;;;;;;;5075473;28;20488;-74
2023/03/09 14:19:44;;;;;;;2.03;1.10;;;;;;;;;;5083087;28;20641;-72
2023/03/09 14:22:18;;;;;;;5.40;1.40;;;;;;;;;;5077762;28;20055;-76
2023/03/09 14:24:44;;;;;;;4.30;1.50;;;;;;;;;;5074608;28;20055;-79
2023/03/09 14:27:12;;;;;;;9.88;2.25;;;;;;;;;;5072036;28;20032;-73
2023/03/09 14:29:38;;;;;;;5.38;1.45;;;;;;;;;;5075723;28;20028;-73
2023/03/09 14:32:22;;;;;;;5.45;1.33;;;;;;;;;;5077495;28;20503;-74
2023/03/09 14:34:49;;;;;;;8.35;1.70;;;;;;;;;;5080194;28;20038;-76
2023/03/09 14:37:19;;;;;;;4.78;1.55;;;;;;;;;;5073923;28;20020;-76
2023/03/09 14:39:47;;;;;;;7.63;1.83;;;;;;;;;;5075832;28;20059;-75
2023/03/09 14:42:18;;;;;;;12.77;1.55;;;;;;;;;;5073599;28;20407;-76
2023/03/09 14:44:46;;;;;;;4.45;1.50;;;;;;;;;;5078111;28;20032;-76
2023/03/09 14:47:19;;;;;;;4.82;1.40;;;;;;;;;;5077848;28;20137;-78
2023/03/09 14:49:49;;;;;;;2.75;2.10;;;;;;;;;;5086448;28;20059;-74